Time;durP1;ratioP1;P1;durP2;ratioP2;P2;SDS_P1;SDS_P2;PMS_P1;PMS_P2;Temp;Humidity;BMP_temperature;BMP_pressure;BME280_temperature;BME280_humidity;BME280_pressure;Samples;Min_cycle;Max_cycle;Signal;HPM_P1;HPM_P2
2022/09/09 00:01:49;;;;;;;2.50;1.40;;;;;;;16.11;100.00;96012.16;5095403;27;20318;-75
2022/09/09 00:04:26;;;;;;;3.60;1.60;;;;;;;16.17;100.00;96010.25;5106921;27;20248;-75
2022/09/09 00:07:03;;;;;;;4.00;1.87;;;;;;;16.23;100.00;96014.63;5090155;27;20207;-75
2022/09/09 00:09:34;;;;;;;1.80;1.20;;;;;;;16.28;100.00;96006.44;5104871;27;20245;-75
2022/09/09 00:12:07;;;;;;;2.10;1.30;;;;;;;16.30;100.00;96004.25;5097788;28;20248;-75
2022/09/09 00:14:46;;;;;;;3.43;1.30;;;;;;;16.34;100.00;96002.59;5088142;28;20205;-75
2022/09/09 00:17:20;;;;;;;3.57;1.40;;;;;;;16.41;100.00;96003.16;5091051;28;20228;-75
2022/09/09 00:19:55;;;;;;;3.67;1.50;;;;;;;16.53;100.00;96000.94;5093536;28;20208;-75
2022/09/09 00:22:25;;;;;;;3.40;1.40;;;;;;;16.50;100.00;95997.97;5093088;28;20204;-75
2022/09/09 00:24:54;;;;;;;4.50;1.43;;;;;;;16.53;100.00;95998.19;5093100;28;20196;-75
2022/09/09 00:27:29;;;;;;;1.87;1.40;;;;;;;16.52;100.00;96002.00;5104112;27;20296;-75
2022/09/09 00:30:02;;;;;;;1.80;1.20;;;;;;;16.57;100.00;96003.94;5100340;28;20221;-75
2022/09/09 00:32:35;;;;;;;2.33;1.20;;;;;;;16.56;100.00;96005.03;5114770;27;20542;-75
2022/09/09 00:35:16;;;;;;;1.80;1.30;;;;;;;16.60;100.00;96004.19;5093067;28;20208;-75
2022/09/09 00:37:44;;;;;;;2.30;1.30;;;;;;;16.63;100.00;96009.13;5092204;28;20228;-75
2022/09/09 00:40:23;;;;;;;1.23;1.13;;;;;;;16.63;100.00;96009.13;5098062;28;20212;-75
2022/09/09 00:43:05;;;;;;;3.80;1.50;;;;;;;16.56;100.00;96007.75;5089937;27;20277;-75
2022/09/09 00:45:57;;;;;;;2.63;1.30;;;;;;;16.55;100.00;96006.09;5087637;28;20211;-75
2022/09/09 00:48:36;;;;;;;1.90;1.37;;;;;;;16.54;100.00;96009.91;5095783;28;20304;-75
2022/09/09 00:51:13;;;;;;;2.37;1.40;;;;;;;16.45;100.00;96001.50;5102038;28;20215;-75
2022/09/09 00:54:06;;;;;;;2.13;1.30;;;;;;;16.39;100.00;96001.78;5101473;28;20212;-75
2022/09/09 00:56:41;;;;;;;1.20;1.10;;;;;;;16.42;100.00;95999.31;5110272;27;20227;-75
2022/09/09 00:59:36;;;;;;;2.33;1.37;;;;;;;16.42;100.00;95999.31;5092179;28;20275;-75
2022/09/09 01:02:14;;;;;;;3.03;1.30;;;;;;;16.33;100.00;95994.72;5092616;28;20250;-75
2022/09/09 01:04:42;;;;;;;1.73;1.30;;;;;;;16.31;100.00;95994.16;5083218;28;20216;-75
2022/09/09 01:07:17;;;;;;;4.57;1.40;;;;;;;16.33;100.00;95992.00;5085663;28;20195;-75
2022/09/09 01:09:54;;;;;;;4.00;1.47;;;;;;;16.31;100.00;95992.25;5090460;28;20212;-75
2022/09/09 01:12:31;;;;;;;4.83;1.50;;;;;;;16.31;100.00;95994.97;5105355;27;20255;-75
2022/09/09 01:15:09;;;;;;;3.77;1.40;;;;;;;16.28;100.00;95995.53;5098055;28;20211;-75
2022/09/09 01:17:58;;;;;;;2.90;1.37;;;;;;;16.22;100.00;95996.63;5091566;27;20315;-75
2022/09/09 01:20:30;;;;;;;3.30;1.40;;;;;;;16.22;100.00;95996.63;5093596;27;20220;-75
2022/09/09 01:23:20;;;;;;;3.33;1.53;;;;;;;16.23;100.00;95992.81;5087350;27;20207;-75
2022/09/09 01:26:19;;;;;;;3.13;1.67;;;;;;;16.18;100.00;95995.53;5089497;27;20195;-74
2022/09/09 01:28:48;;;;;;;2.30;1.30;;;;;;;16.10;100.00;95990.63;5085277;28;20277;-75
2022/09/09 01:31:20;;;;;;;1.90;1.50;;;;;;;16.01;100.00;95984.09;5093223;27;20199;-75
2022/09/09 01:33:48;;;;;;;2.27;1.40;;;;;;;15.83;100.00;95990.91;5100915;27;20196;-75
2022/09/09 01:36:22;;;;;;;3.77;1.40;;;;;;;15.73;100.00;95989.03;5100097;27;20215;-75
2022/09/09 01:38:52;;;;;;;2.67;1.33;;;;;;;15.71;100.00;95993.91;5082891;27;20207;-75
2022/09/09 01:41:22;;;;;;;3.77;1.73;;;;;;;15.73;100.00;95988.22;5090575;27;20217;-75
2022/09/09 01:44:10;;;;;;;3.57;1.67;;;;;;;15.72;100.00;95992.03;5101542;27;20319;-75
2022/09/09 01:46:39;;;;;;;3.30;1.37;;;;;;;15.75;100.00;95991.44;5102790;27;20279;-75
2022/09/09 01:49:12;;;;;;;4.40;1.67;;;;;;;15.80;100.00;95994.19;5089622;27;20198;-75
2022/09/09 01:51:41;;;;;;;3.93;1.70;;;;;;;15.77;100.00;95995.53;5105318;27;20204;-75
2022/09/09 01:54:12;;;;;;;3.20;1.50;;;;;;;15.72;100.00;95992.84;5089170;27;20212;-74
2022/09/09 01:56:51;;;;;;;2.57;1.50;;;;;;;15.70;100.00;95995.00;5095379;27;20226;-75
2022/09/09 01:59:51;;;;;;;1.97;1.40;;;;;;;15.69;100.00;95993.38;5087971;27;20203;-75
2022/09/09 02:02:21;;;;;;;1.97;1.47;;;;;;;15.65;100.00;95992.25;5085078;27;20217;-75
2022/09/09 02:05:14;;;;;;;2.27;1.27;;;;;;;15.62;100.00;95989.28;5085228;27;20199;-75
2022/09/09 02:07:44;;;;;;;2.27;1.30;;;;;;;15.61;100.00;95988.47;5097588;27;20211;-75
2022/09/09 02:10:29;;;;;;;4.87;1.80;;;;;;;15.57;100.00;95995.53;5090582;27;20215;-75
2022/09/09 02:13:12;;;;;;;4.20;1.40;;;;;;;15.57;100.00;95995.53;5090741;27;20219;-75
2022/09/09 02:15:47;;;;;;;3.80;1.50;;;;;;;15.57;100.00;96000.97;5083655;27;20271;-75
2022/09/09 02:18:19;;;;;;;3.87;2.00;;;;;;;15.52;100.00;96000.94;5086974;27;20227;-75
2022/09/09 02:20:48;;;;;;;1.57;1.30;;;;;;;15.50;100.00;96000.38;5090465;27;20199;-75
2022/09/09 02:23:17;;;;;;;1.40;1.30;;;;;;;15.49;100.00;96002.28;5093737;27;20606;-75
2022/09/09 02:25:47;;;;;;;4.37;1.50;;;;;;;15.50;100.00;96009.34;5099244;27;20224;-75
2022/09/09 02:28:25;;;;;;;4.43;1.40;;;;;;;15.43;100.00;96022.41;5099349;27;20195;-75
2022/09/09 02:30:54;;;;;;;2.83;1.43;;;;;;;15.38;100.00;96018.88;5092210;27;20204;-75
2022/09/09 02:33:28;;;;;;;4.10;1.47;;;;;;;15.40;100.00;96027.56;5101319;27;20210;-75
2022/09/09 02:36:01;;;;;;;1.27;1.17;;;;;;;15.35;100.00;96035.72;5095567;27;20203;-75
2022/09/09 02:38:35;;;;;;;1.57;1.40;;;;;;;15.29;100.00;96034.91;5098206;27;20219;-75
2022/09/09 02:41:10;;;;;;;4.07;1.43;;;;;;;15.31;100.00;96037.34;5102101;27;20211;-75
2022/09/09 02:43:39;;;;;;;4.57;1.37;;;;;;;15.27;100.00;96036.25;5089172;28;20200;-74
2022/09/09 02:46:33;;;;;;;2.27;1.40;;;;;;;15.30;100.00;96041.16;5097052;28;20207;-75
2022/09/09 02:49:05;;;;;;;3.13;1.17;;;;;;;15.29;100.00;96040.34;5112237;27;20230;-75
2022/09/09 02:51:45;;;;;;;2.87;1.60;;;;;;;15.29;100.00;96048.50;5097634;27;20235;-75
2022/09/09 02:54:21;;;;;;;2.07;1.33;;;;;;;15.20;100.00;96039.22;5089732;27;20208;-75
2022/09/09 02:56:54;;;;;;;1.77;1.23;;;;;;;15.17;100.00;96036.19;5090272;27;20214;-75
2022/09/09 02:59:27;;;;;;;3.03;1.50;;;;;;;15.10;100.00;96041.91;5087689;27;20233;-75
2022/09/09 03:01:54;;;;;;;1.40;1.30;;;;;;;15.11;100.00;96044.34;5091389;27;20191;-75
2022/09/09 03:04:24;;;;;;;2.80;1.40;;;;;;;15.11;100.00;96041.63;5086934;27;20219;-75
2022/09/09 03:06:52;;;;;;;2.03;1.30;;;;;;;15.11;100.00;96049.78;5087311;27;20208;-74
2022/09/09 03:09:21;;;;;;;3.30;1.70;;;;;;;15.12;100.00;96040.56;5093663;28;20199;-75
2022/09/09 03:11:49;;;;;;;4.60;1.60;;;;;;;15.11;100.00;96052.50;5091736;28;20300;-75
2022/09/09 03:14:20;;;;;;;1.93;1.60;;;;;;;15.08;100.00;96046.78;5095173;28;20262;-74
2022/09/09 03:16:49;;;;;;;2.90;1.60;;;;;;;14.99;100.00;96041.03;5091448;27;20270;-75
2022/09/09 03:19:18;;;;;;;2.03;1.80;;;;;;;14.86;100.00;96038.81;5108028;27;20230;-74
2022/09/09 03:21:45;;;;;;;2.07;1.73;;;;;;;14.77;100.00;96043.94;5087939;28;20219;-75
2022/09/09 03:24:13;;;;;;;2.73;1.70;;;;;;;14.76;100.00;96050.44;5088227;27;20250;-75
2022/09/09 03:26:40;;;;;;;2.50;1.40;;;;;;;14.73;100.00;96045.53;5091897;28;20214;-74
2022/09/09 03:29:10;;;;;;;3.10;1.47;;;;;;;14.71;100.00;96044.16;5094768;27;20204;-75
2022/09/09 03:31:37;;;;;;;1.80;1.50;;;;;;;14.65;100.00;96045.19;5092610;27;20245;-74
2022/09/09 03:34:06;;;;;;;6.47;1.40;;;;;;;14.60;100.00;96050.63;5089193;27;20203;-75
2022/09/09 03:36:34;;;;;;;3.33;1.60;;;;;;;14.55;100.00;96053.28;5091561;27;20206;-74
2022/09/09 03:39:02;;;;;;;4.07;1.60;;;;;;;14.58;100.00;96055.50;5089814;27;20230;-75
2022/09/09 03:41:31;;;;;;;3.60;1.80;;;;;;;14.50;100.00;96045.94;5109283;27;20211;-74
2022/09/09 03:44:00;;;;;;;3.33;1.60;;;;;;;14.46;100.00;96044.81;5097324;27;20204;-75
2022/09/09 03:46:31;;;;;;;3.13;1.57;;;;;;;14.40;100.00;96040.44;5104655;27;20290;-74
2022/09/09 03:48:59;;;;;;;3.93;1.90;;;;;;;14.26;100.00;96048.19;5092315;27;20208;-75
2022/09/09 03:51:28;;;;;;;2.43;1.63;;;;;;;14.22;100.00;96041.63;5097418;27;20206;-74
2022/09/09 03:53:57;;;;;;;4.47;1.90;;;;;;;14.27;100.00;96033.53;5095378;27;20265;-74
2022/09/09 03:56:26;;;;;;;3.03;1.67;;;;;;;14.28;100.00;96037.91;5089396;27;20227;-75
2022/09/09 03:59:01;;;;;;;2.80;1.80;;;;;;;14.34;100.00;96033.31;5089928;27;20226;-76
2022/09/09 04:01:28;;;;;;;3.93;1.70;;;;;;;14.35;100.00;96030.34;5107232;27;20338;-76
2022/09/09 04:03:57;;;;;;;3.07;1.80;;;;;;;14.29;100.00;96034.06;5092743;27;20192;-75
2022/09/09 04:06:25;;;;;;;2.87;1.80;;;;;;;14.34;100.00;96038.75;5107832;27;20215;-76
2022/09/09 04:08:55;;;;;;;2.63;1.70;;;;;;;14.39;100.00;96045.03;5099650;27;20204;-76
2022/09/09 04:11:23;;;;;;;8.10;1.70;;;;;;;14.43;100.00;96044.53;5107924;27;20232;-75
2022/09/09 04:13:52;;;;;;;2.30;1.87;;;;;;;14.48;100.00;96047.28;5094510;27;20235;-76
2022/09/09 04:16:20;;;;;;;1.70;1.50;;;;;;;14.51;100.00;96044.03;5101662;27;20200;-75
2022/09/09 04:18:48;;;;;;;1.63;1.40;;;;;;;14.52;100.00;96040.25;5097263;27;20215;-75
2022/09/09 04:21:17;;;;;;;5.10;1.80;;;;;;;14.56;100.00;96041.34;5106314;27;20211;-75
2022/09/09 04:23:44;;;;;;;4.73;1.77;;;;;;;14.63;100.00;96033.78;5103988;27;20203;-76
2022/09/09 04:26:12;;;;;;;4.47;1.40;;;;;;;14.68;100.00;96040.06;5094405;28;20217;-76
2022/09/09 04:28:40;;;;;;;2.37;1.40;;;;;;;14.76;100.00;96038.75;5097247;27;20200;-76
2022/09/09 04:31:18;;;;;;;3.67;1.57;;;;;;;14.85;100.00;96036.34;5101137;27;20210;-75
2022/09/09 04:33:46;;;;;;;4.17;1.60;;;;;;;14.89;100.00;96040.97;5099695;27;20204;-76
2022/09/09 04:36:13;;;;;;;1.67;1.33;;;;;;;14.94;100.00;96032.03;5106254;27;20200;-75
2022/09/09 04:38:40;;;;;;;2.17;1.70;;;;;;;14.95;100.00;96039.94;5095393;28;20231;-76
2022/09/09 04:41:10;;;;;;;2.97;1.67;;;;;;;14.94;100.00;96043.72;5099971;27;20336;-76
2022/09/09 04:43:41;;;;;;;4.30;1.57;;;;;;;14.92;100.00;96048.59;5101312;27;20200;-76
2022/09/09 04:46:10;;;;;;;2.27;1.77;;;;;;;14.90;100.00;96041.78;5099613;27;20250;-76
2022/09/09 04:48:36;;;;;;;2.30;1.70;;;;;;;14.92;100.00;96048.59;5099338;27;20200;-76
2022/09/09 04:51:07;;;;;;;5.70;1.83;;;;;;;14.93;100.00;96047.53;5093941;27;20199;-76
2022/09/09 04:53:35;;;;;;;2.40;1.63;;;;;;;14.90;100.00;96047.22;5096538;27;20200;-76
2022/09/09 04:56:04;;;;;;;2.87;1.50;;;;;;;14.90;100.00;96042.63;5114280;27;20227;-76
2022/09/09 04:58:33;;;;;;;4.57;1.87;;;;;;;14.91;100.00;96043.44;5099459;27;20315;-76
2022/09/09 05:01:06;;;;;;;3.73;1.80;;;;;;;14.99;100.00;96042.91;5094337;27;20204;-76
2022/09/09 05:03:34;;;;;;;2.00;1.67;;;;;;;15.00;100.00;96044.56;5099415;27;20211;-76
2022/09/09 05:06:08;;;;;;;3.20;1.60;;;;;;;14.99;100.00;96037.50;5097371;27;20409;-76
2022/09/09 05:08:38;;;;;;;2.93;1.77;;;;;;;15.01;100.00;96046.19;5096336;27;20294;-76
2022/09/09 05:11:15;;;;;;;3.27;1.90;;;;;;;15.12;100.00;96047.88;5092592;27;20281;-76
2022/09/09 05:13:42;;;;;;;2.50;1.90;;;;;;;15.19;100.00;96050.34;5098923;27;20300;-76
2022/09/09 05:16:11;;;;;;;2.77;1.90;;;;;;;15.26;100.00;96048.19;5090440;28;20236;-76
2022/09/09 05:18:38;;;;;;;3.30;1.70;;;;;;;15.33;100.00;96046.03;5103873;27;20231;-76
2022/09/09 05:21:07;;;;;;;7.47;2.60;;;;;;;15.34;100.00;96053.13;5092950;28;20205;-76
2022/09/09 05:23:35;;;;;;;6.17;3.00;;;;;;;15.40;100.00;96055.59;5102094;28;20295;-76
2022/09/09 05:26:03;;;;;;;3.10;1.70;;;;;;;15.44;100.00;96056.69;5097413;27;20220;-76
2022/09/09 05:28:31;;;;;;;1.77;1.67;;;;;;;15.45;100.00;96060.25;5086489;28;20322;-76
2022/09/09 05:31:00;;;;;;;4.37;1.60;;;;;;;15.46;100.00;96065.41;5091623;28;20197;-76
2022/09/09 05:33:29;;;;;;;3.70;1.60;;;;;;;15.45;100.00;96062.97;5094549;28;20211;-76
2022/09/09 05:35:59;;;;;;;3.63;1.67;;;;;;;15.43;100.00;96071.38;5090564;28;20199;-76
2022/09/09 05:38:26;;;;;;;1.47;1.37;;;;;;;15.44;100.00;96072.19;5099698;28;20213;-76
2022/09/09 05:40:55;;;;;;;1.97;1.40;;;;;;;15.46;100.00;96065.41;5089763;28;20201;-75
2022/09/09 05:43:23;;;;;;;2.73;1.70;;;;;;;15.51;100.00;96067.31;5091118;28;20197;-75
2022/09/09 05:46:01;;;;;;;2.77;1.43;;;;;;;15.51;100.00;96072.75;5093666;28;20228;-76
2022/09/09 05:48:30;;;;;;;7.73;1.93;;;;;;;15.59;100.00;96064.09;5097925;28;20207;-76
2022/09/09 05:50:57;;;;;;;5.57;1.53;;;;;;;15.65;100.00;96064.94;5094525;28;20207;-76
2022/09/09 05:53:24;;;;;;;2.83;1.83;;;;;;;15.59;100.00;96072.28;5091650;28;20205;-75
2022/09/09 05:55:58;;;;;;;2.77;1.60;;;;;;;15.60;100.00;96073.91;5101453;27;20197;-76
2022/09/09 05:58:27;;;;;;;2.30;1.30;;;;;;;15.61;100.00;96083.72;5086364;28;20217;-76
2022/09/09 06:01:02;;;;;;;3.97;1.50;;;;;;;15.59;100.00;96091.31;5090941;28;20197;-75
2022/09/09 06:03:30;;;;;;;3.83;1.43;;;;;;;15.52;100.00;96088.81;5088512;28;20220;-76
2022/09/09 06:06:01;;;;;;;5.10;1.70;;;;;;;15.52;100.00;96088.81;5095032;28;20283;-75
2022/09/09 06:08:29;;;;;;;2.40;1.47;;;;;;;15.56;100.00;96082.91;5103974;27;20273;-76
2022/09/09 06:11:03;;;;;;;3.53;2.00;;;;;;;15.59;100.00;96091.31;5088846;28;20302;-76
2022/09/09 06:13:32;;;;;;;2.90;1.90;;;;;;;15.64;100.00;96088.63;5097714;28;20216;-76
2022/09/09 06:15:59;;;;;;;7.23;1.80;;;;;;;15.70;100.00;96097.63;5090791;28;20192;-76
2022/09/09 06:18:29;;;;;;;1.90;1.53;;;;;;;15.67;100.00;96103.59;5097656;28;20216;-76
2022/09/09 06:21:04;;;;;;;2.37;1.57;;;;;;;15.64;100.00;96099.53;5101416;28;20197;-76
2022/09/09 06:23:32;;;;;;;3.80;1.60;;;;;;;15.54;100.00;96099.47;5099823;28;20290;-76
2022/09/09 06:26:05;;;;;;;5.20;1.60;;;;;;;15.48;100.00;96095.88;5094300;27;20208;-76
2022/09/09 06:28:33;;;;;;;4.90;1.90;;;;;;;15.52;100.00;96101.63;5098332;27;20212;-76
2022/09/09 06:31:00;;;;;;;3.80;1.80;;;;;;;15.51;100.00;96098.06;5089342;28;20197;-76
2022/09/09 06:33:34;;;;;;;2.07;1.80;;;;;;;15.49;100.00;96088.53;5092185;28;20227;-76
2022/09/09 06:36:04;;;;;;;3.93;2.20;;;;;;;15.50;100.00;96090.16;5094761;28;20203;-76
2022/09/09 06:38:32;;;;;;;2.13;1.90;;;;;;;15.56;100.00;96081.00;5094288;28;20322;-76
2022/09/09 06:41:01;;;;;;;4.90;1.80;;;;;;;15.51;100.00;96083.66;5094563;28;20215;-76
2022/09/09 06:43:30;;;;;;;4.37;2.10;;;;;;;15.48;100.00;96086.91;5095509;28;20200;-76
2022/09/09 06:45:58;;;;;;;3.43;1.93;;;;;;;15.51;100.00;96083.66;5087626;28;20269;-76
2022/09/09 06:48:27;;;;;;;3.67;1.90;;;;;;;15.49;100.00;96077.66;5098992;28;20280;-76
2022/09/09 06:51:03;;;;;;;6.27;1.97;;;;;;;15.50;100.00;96071.13;5096114;28;20196;-76
2022/09/09 06:53:33;;;;;;;1.97;1.77;;;;;;;15.54;100.00;96076.88;5090068;28;20210;-76
2022/09/09 06:56:01;;;;;;;6.97;2.50;;;;;;;15.58;100.00;96067.09;5093227;28;20278;-76
2022/09/09 06:58:30;;;;;;;4.73;2.30;;;;;;;15.49;100.00;96061.31;5091451;28;20296;-76
2022/09/09 07:01:06;;;;;;;4.17;1.80;;;;;;;15.51;100.00;96067.31;5096193;28;20291;-76
2022/09/09 07:03:35;;;;;;;2.33;1.83;;;;;;;15.46;100.00;96068.13;5096241;28;20219;-76
2022/09/09 07:06:04;;;;;;;2.57;1.60;;;;;;;15.52;100.00;96063.53;5092323;28;20201;-76
2022/09/09 07:08:31;;;;;;;2.13;1.50;;;;;;;15.58;100.00;96072.53;5092673;28;20216;-76
2022/09/09 07:11:05;;;;;;;3.63;1.73;;;;;;;15.59;100.00;96075.00;5093878;28;20223;-76
2022/09/09 07:13:36;;;;;;;2.97;1.70;;;;;;;15.67;100.00;96081.81;5093125;28;20276;-77
2022/09/09 07:16:06;;;;;;;3.53;1.87;;;;;;;15.68;100.00;96095.16;5101199;28;20245;-77
2022/09/09 07:18:34;;;;;;;1.77;1.60;;;;;;;15.73;100.00;96083.47;5091955;28;20232;-77
2022/09/09 07:21:04;;;;;;;4.63;1.70;;;;;;;15.78;100.00;96087.03;5093402;28;20207;-77
2022/09/09 07:23:32;;;;;;;3.00;2.10;;;;;;;15.80;100.00;96084.84;5097491;28;20302;-77
2022/09/09 07:25:59;;;;;;;3.67;2.17;;;;;;;15.88;100.00;96084.31;5094232;28;20283;-77
2022/09/09 07:28:28;;;;;;;8.03;2.60;;;;;;;15.99;100.00;96090.56;5090659;28;20227;-77
2022/09/09 07:30:57;;;;;;;3.67;2.10;;;;;;;16.08;100.00;96088.13;5100005;28;20208;-77
2022/09/09 07:33:26;;;;;;;5.27;2.20;;;;;;;16.11;100.00;96088.41;5090870;28;20197;-77
2022/09/09 07:35:54;;;;;;;4.70;1.97;;;;;;;16.18;100.00;96088.97;5088951;28;20203;-77
2022/09/09 07:38:22;;;;;;;3.83;1.70;;;;;;;16.28;100.00;96090.88;5092341;28;20213;-77
2022/09/09 07:40:50;;;;;;;2.40;1.70;;;;;;;16.27;100.00;96084.63;5088813;28;20211;-77
2022/09/09 07:43:18;;;;;;;3.03;1.80;;;;;;;16.31;100.00;96087.63;5091521;28;20324;-77
2022/09/09 07:45:46;;;;;;;2.90;1.70;;;;;;;16.38;100.00;96082.72;5103995;28;20300;-77
2022/09/09 07:48:14;;;;;;;2.67;1.90;;;;;;;16.50;100.00;96088.69;5100289;28;20197;-77
2022/09/09 07:50:41;;;;;;;4.77;2.50;;;;;;;16.55;100.00;96094.16;5092269;28;20197;-77
2022/09/09 07:53:09;;;;;;;2.50;1.67;;;;;;;16.60;100.00;96091.41;5091424;28;20236;-77
2022/09/09 07:55:37;;;;;;;2.90;1.70;;;;;;;16.66;100.00;96075.91;5093772;28;20204;-77
2022/09/09 07:58:04;;;;;;;3.80;1.60;;;;;;;16.72;100.00;96074.81;5096326;28;20213;-77
2022/09/09 08:00:33;;;;;;;3.90;1.80;;;;;;;16.81;100.00;96075.06;5102396;28;20211;-77
2022/09/09 08:03:01;;;;;;;3.90;1.73;;;;;;;16.99;100.00;96079.91;5096167;28;20203;-77
2022/09/09 08:05:29;;;;;;;3.23;1.80;;;;;;;17.36;100.00;96080.31;5100187;28;20299;-77
2022/09/09 08:07:56;;;;;;;3.17;1.60;;;;;;;17.76;100.00;96082.06;5095710;28;20208;-77
2022/09/09 08:10:23;;;;;;;3.53;1.90;;;;;;;18.31;100.00;96087.41;5088759;28;20208;-77
2022/09/09 08:12:53;;;;;;;3.70;1.77;;;;;;;18.81;100.00;96092.47;5097952;28;20223;-78
2022/09/09 08:15:21;;;;;;;5.43;1.90;;;;;;;19.35;100.00;96091.34;5094162;27;20212;-77
2022/09/09 08:17:48;;;;;;;5.13;2.00;;;;;;;19.58;100.00;96092.47;5094911;28;20204;-77
2022/09/09 08:20:16;;;;;;;3.97;2.13;;;;;;;19.88;100.00;96092.06;5095492;28;20228;-77
2022/09/09 08:22:43;;;;;;;1.77;1.67;;;;;;;20.01;100.00;96093.25;5093304;28;20209;-78
2022/09/09 08:25:11;;;;;;;5.43;1.95;;;;;;;19.49;100.00;96096.97;5098178;27;20287;-78
2022/09/09 08:27:39;;;;;;;3.65;1.83;;;;;;;18.98;100.00;96096.69;5102504;27;20212;-78
2022/09/09 08:30:10;;;;;;;3.50;2.00;;;;;;;19.00;100.00;96091.75;5100043;27;20264;-78
2022/09/09 08:32:37;;;;;;;6.50;1.80;;;;;;;19.30;100.00;96090.59;5103870;27;20201;-78
2022/09/09 08:35:05;;;;;;;4.07;1.77;;;;;;;19.71;100.00;96090.94;5106017;27;20253;-77
2022/09/09 08:37:32;;;;;;;9.10;1.92;;;;;;;20.18;100.00;96092.72;5101523;27;20240;-78
2022/09/09 08:39:59;;;;;;;2.85;1.52;;;;;;;20.55;100.00;96091.91;5111746;27;20314;-78
2022/09/09 08:42:39;;;;;;;2.22;1.73;;;;;;;20.80;100.00;96094.22;5095781;27;20204;-78
2022/09/09 08:45:34;;;;;;;1.73;1.30;;;;;;;20.91;97.96;96092.91;5100107;28;20214;-78
2022/09/09 08:48:24;;;;;;;2.63;1.67;;;;;;;21.11;99.67;96084.28;5116949;27;20211;-78
2022/09/09 08:50:54;;;;;;;2.65;1.50;;;;;;;21.30;98.28;96075.19;5097596;28;20200;-78
2022/09/09 08:53:31;;;;;;;2.08;1.25;;;;;;;21.36;95.83;96084.94;5100815;28;20204;-78
2022/09/09 08:56:00;;;;;;;2.72;1.52;;;;;;;21.48;95.45;96088.00;5095042;27;20227;-78
2022/09/09 08:58:50;;;;;;;1.83;1.40;;;;;;;21.41;95.56;96080.19;5111876;27;20264;-78
2022/09/09 09:01:46;;;;;;;3.20;1.60;;;;;;;21.39;96.42;96084.34;5101832;28;20222;-78
2022/09/09 09:04:34;;;;;;;2.72;1.60;;;;;;;21.23;97.69;96088.50;5098919;28;20204;-77
2022/09/09 09:07:14;;;;;;;4.03;1.60;;;;;;;20.87;98.17;96077.34;5106913;27;20256;-78
2022/09/09 09:09:53;;;;;;;4.60;1.70;;;;;;;20.77;100.00;96079.16;5093946;27;20196;-78
2022/09/09 09:12:23;;;;;;;4.70;1.60;;;;;;;21.06;97.47;96073.41;5105004;28;20310;-77
2022/09/09 09:14:51;;;;;;;3.72;1.60;;;;;;;21.16;96.83;96080.66;5092854;28;20208;-78
2022/09/09 09:17:24;;;;;;;5.55;1.70;;;;;;;21.44;96.65;96078.75;5089628;28;20201;-77
2022/09/09 09:19:51;;;;;;;3.35;1.88;;;;;;;21.70;92.77;96082.59;5092361;28;20224;-77
2022/09/09 09:22:21;;;;;;;3.20;1.52;;;;;;;21.93;92.16;96077.97;5089992;28;20205;-77
2022/09/09 09:24:55;;;;;;;3.00;1.55;;;;;;;22.13;88.62;96084.97;5088294;28;20209;-78
2022/09/09 09:27:33;;;;;;;2.60;1.45;;;;;;;22.20;87.89;96082.63;5089417;28;20299;-78
2022/09/09 09:30:02;;;;;;;2.22;1.30;;;;;;;21.89;88.22;96075.03;5099706;28;20201;-78
2022/09/09 09:32:36;;;;;;;1.88;1.45;;;;;;;21.89;80.31;96066.78;5091450;28;20212;-77
2022/09/09 09:35:12;;;;;;;1.73;1.20;;;;;;;21.89;78.55;96075.03;5093929;27;20218;-78
2022/09/09 09:37:43;;;;;;;1.73;1.40;;;;;;;21.83;80.90;96070.78;5092736;28;20205;-77
2022/09/09 09:40:13;;;;;;;2.15;1.40;;;;;;;21.71;82.97;96067.72;5102135;28;20220;-78
2022/09/09 09:42:51;;;;;;;1.55;1.30;;;;;;;21.92;82.63;96064.53;5094399;27;20195;-78
2022/09/09 09:45:29;;;;;;;1.90;1.60;;;;;;;21.89;82.49;96066.78;5108890;28;20211;-77
2022/09/09 09:48:04;;;;;;;2.47;1.50;;;;;;;22.05;80.46;96069.22;5095244;28;20204;-78
2022/09/09 09:50:34;;;;;;;2.88;1.15;;;;;;;22.27;79.88;96066.50;5091766;28;20208;-77
2022/09/09 09:53:05;;;;;;;1.60;1.20;;;;;;;22.52;79.21;96057.63;5092036;28;20268;-78
2022/09/09 09:55:37;;;;;;;6.10;1.63;;;;;;;22.64;77.86;96068.88;5094795;28;20204;-77
2022/09/09 09:58:07;;;;;;;2.45;1.30;;;;;;;22.87;78.21;96063.38;5105482;28;20237;-78
2022/09/09 10:00:35;;;;;;;4.50;1.58;;;;;;;22.75;77.26;96052.13;5101091;28;20283;-78
2022/09/09 10:03:23;;;;;;;4.60;1.73;;;;;;;22.88;77.47;96054.00;5104143;27;20214;-77
2022/09/09 10:05:52;;;;;;;4.07;1.20;;;;;;;22.74;76.06;96051.31;5097231;28;20236;-78
2022/09/09 10:08:19;;;;;;;3.05;1.60;;;;;;;22.61;76.50;96043.94;5094398;27;20347;-77
2022/09/09 10:10:59;;;;;;;4.32;1.05;;;;;;;22.62;75.27;96051.06;5096414;28;20232;-77
2022/09/09 10:13:32;;;;;;;1.83;1.20;;;;;;;22.67;73.70;96050.09;5099864;28;20204;-77
2022/09/09 10:16:17;;;;;;;2.40;1.10;;;;;;;22.70;74.51;96052.25;5113374;27;20208;-77
2022/09/09 10:18:59;;;;;;;4.57;1.45;;;;;;;22.85;74.50;96049.13;5087811;28;20201;-77
2022/09/09 10:21:45;;;;;;;2.67;1.20;;;;;;;22.99;73.46;96044.31;5088930;28;20205;-77
2022/09/09 10:24:36;;;;;;;2.05;1.30;;;;;;;22.61;74.43;96049.44;5091381;28;20288;-77
2022/09/09 10:27:12;;;;;;;2.08;1.27;;;;;;;22.34;74.72;96047.63;5097643;28;20217;-78
2022/09/09 10:30:01;;;;;;;1.88;1.20;;;;;;;21.84;76.33;96038.59;5095243;28;20207;-77
2022/09/09 10:32:41;;;;;;;3.42;1.15;;;;;;;21.78;77.15;96032.38;5102764;28;20204;-77
2022/09/09 10:35:20;;;;;;;1.98;1.13;;;;;;;21.66;76.81;96029.38;5094558;28;20218;-77
2022/09/09 10:38:13;;;;;;;1.63;1.20;;;;;;;21.58;77.70;96029.28;5087234;28;20210;-77
2022/09/09 10:40:51;;;;;;;1.42;1.10;;;;;;;21.52;80.08;96028.59;5092646;28;20224;-77
2022/09/09 10:43:34;;;;;;;1.45;1.10;;;;;;;21.50;79.71;96026.16;5088653;28;20204;-77
2022/09/09 10:46:09;;;;;;;2.35;1.42;;;;;;;21.42;79.78;96028.81;5086124;28;20254;-77
2022/09/09 10:48:57;;;;;;;2.58;1.20;;;;;;;21.39;78.55;96030.22;5087451;28;20211;-77
2022/09/09 10:51:32;;;;;;;1.92;1.13;;;;;;;21.35;79.45;96028.41;5103543;28;20213;-75
2022/09/09 10:54:14;;;;;;;2.65;1.20;;;;;;;21.29;79.71;96027.69;5099814;28;20513;-77
2022/09/09 10:56:44;;;;;;;2.65;1.00;;;;;;;21.24;79.53;96025.06;5096189;28;20234;-77
2022/09/09 10:59:16;;;;;;;2.38;1.20;;;;;;;21.64;78.49;96026.13;5098703;28;20228;-76
2022/09/09 11:01:49;;;;;;;1.48;1.00;;;;;;;21.59;76.65;96029.00;5107928;27;20282;-77
2022/09/09 11:04:22;;;;;;;2.55;1.10;;;;;;;21.72;77.99;96019.91;5103357;27;20200;-77
2022/09/09 11:06:54;;;;;;;1.20;1.10;;;;;;;21.86;77.55;96023.41;5091561;28;20261;-77
2022/09/09 11:09:26;;;;;;;3.55;1.30;;;;;;;21.77;76.51;96027.22;5091838;28;20280;-77
2022/09/09 11:11:55;;;;;;;2.75;1.38;;;;;;;21.78;76.75;96020.59;5085827;28;20268;-77
2022/09/09 11:14:28;;;;;;;2.08;1.33;;;;;;;21.88;76.35;96025.84;5089718;28;20200;-77
2022/09/09 11:17:00;;;;;;;2.33;1.38;;;;;;;22.34;77.04;96022.88;5095452;28;20207;-77
2022/09/09 11:19:34;;;;;;;3.30;1.55;;;;;;;22.27;75.64;96022.50;5103274;28;20231;-77
2022/09/09 11:22:06;;;;;;;1.90;1.10;;;;;;;21.87;78.53;96015.97;5087834;28;20304;-77
2022/09/09 11:24:40;;;;;;;3.28;1.20;;;;;;;22.09;76.59;96009.75;5088497;28;20204;-77
2022/09/09 11:27:13;;;;;;;1.98;1.30;;;;;;;22.26;77.94;96012.63;5101961;28;20208;-77
2022/09/09 11:30:06;;;;;;;3.00;1.17;;;;;;;22.54;77.37;96011.34;5094917;28;20205;-77
2022/09/09 11:32:54;;;;;;;2.42;1.20;;;;;;;22.29;76.41;96003.72;5092239;28;20212;-77
2022/09/09 11:35:34;;;;;;;1.40;1.23;;;;;;;22.03;77.88;96009.03;5097025;28;20201;-76
2022/09/09 11:38:19;;;;;;;3.22;1.40;;;;;;;22.01;78.35;96005.81;5095866;28;20225;-75
2022/09/09 11:40:47;;;;;;;4.25;1.30;;;;;;;21.96;78.25;96021.56;5091064;28;20216;-75
2022/09/09 11:43:19;;;;;;;4.90;1.35;;;;;;;21.76;78.31;96011.84;5094645;28;20204;-76
2022/09/09 11:45:55;;;;;;;2.22;1.10;;;;;;;21.64;79.38;96012.38;5088217;28;20280;-76
2022/09/09 11:48:30;;;;;;;3.50;1.40;;;;;;;21.56;79.69;96015.88;5089257;28;20203;-76
2022/09/09 11:51:07;;;;;;;2.53;1.25;;;;;;;21.68;79.03;96009.84;5097946;28;20226;-76
2022/09/09 11:53:37;;;;;;;1.63;1.30;;;;;;;21.68;79.99;96010.66;5098413;28;20218;-76